Time;durP1;ratioP1;P1;durP2;ratioP2;P2;SDS_P1;SDS_P2;PMS_P1;PMS_P2;Temp;Humidity;BMP_temperature;BMP_pressure;BME280_temperature;BME280_humidity;BME280_pressure;Samples;Min_cycle;Max_cycle;Signal;HPM_P1;HPM_P2
2023/10/27 00:01:18;;;;;;;7.18;4.30;;;;;;;;;;4395749;32;318232;-92
2023/10/27 00:03:44;;;;;;;8.45;3.75;;;;;;;;;;4398675;32;316354;-92
2023/10/27 00:06:11;;;;;;;10.38;3.65;;;;;;;;;;4385516;32;415669;-91
2023/10/27 00:08:38;;;;;;;7.65;3.55;;;;;;;;;;4420455;32;316754;-90
2023/10/27 00:11:05;;;;;;;8.73;3.50;;;;;;;;;;4409962;32;317038;-87
2023/10/27 00:13:33;;;;;;;9.90;3.67;;;;;;;;;;4414341;32;316511;-90
2023/10/27 00:15:59;;;;;;;11.48;3.90;;;;;;;;;;4381970;32;317665;-85
2023/10/27 00:18:27;;;;;;;5.43;3.53;;;;;;;;;;4402251;32;318294;-85
2023/10/27 00:20:54;;;;;;;10.80;4.22;;;;;;;;;;4393538;32;317278;-90
2023/10/27 00:23:22;;;;;;;12.27;4.40;;;;;;;;;;4404335;32;317702;-90
2023/10/27 00:25:49;;;;;;;10.40;3.45;;;;;;;;;;4390102;32;318458;-93
2023/10/27 00:28:15;;;;;;;11.43;3.83;;;;;;;;;;4402315;32;318412;-93
2023/10/27 00:30:42;;;;;;;9.00;3.87;;;;;;;;;;4402785;32;317810;-92
2023/10/27 00:33:09;;;;;;;10.88;3.80;;;;;;;;;;4394704;32;317134;-91
2023/10/27 00:35:37;;;;;;;5.20;3.12;;;;;;;;;;4404369;32;318484;-92
2023/10/27 00:38:03;;;;;;;6.90;3.40;;;;;;;;;;4387866;32;317432;-91
2023/10/27 00:40:30;;;;;;;7.93;3.35;;;;;;;;;;4404072;32;316458;-88
2023/10/27 00:42:57;;;;;;;10.48;3.40;;;;;;;;;;4393864;32;317055;-90
2023/10/27 00:45:25;;;;;;;11.85;3.50;;;;;;;;;;4404099;32;318726;-84
2023/10/27 00:47:51;;;;;;;7.55;3.45;;;;;;;;;;4387428;32;318460;-86
2023/10/27 00:50:19;;;;;;;5.18;2.78;;;;;;;;;;4403231;32;316961;-87
2023/10/27 00:52:47;;;;;;;13.52;3.85;;;;;;;;;;4392910;32;317668;-86
2023/10/27 00:55:14;;;;;;;19.25;4.28;;;;;;;;;;4402422;32;318476;-87
2023/10/27 00:57:42;;;;;;;10.30;4.35;;;;;;;;;;4402329;32;318171;-85
2023/10/27 01:00:10;;;;;;;15.23;5.30;;;;;;;;;;4388306;32;318330;-92
2023/10/27 01:02:36;;;;;;;7.87;3.90;;;;;;;;;;4404864;32;318387;-85
2023/10/27 01:05:03;;;;;;;14.75;5.05;;;;;;;;;;4392816;32;317204;-88
2023/10/27 01:07:30;;;;;;;9.68;3.62;;;;;;;;;;4402889;32;318415;-87
2023/10/27 01:09:58;;;;;;;5.60;2.87;;;;;;;;;;4388026;32;316642;-87
2023/10/27 01:12:25;;;;;;;3.45;2.33;;;;;;;;;;4403563;32;317119;-87
2023/10/27 01:14:52;;;;;;;5.10;2.00;;;;;;;;;;4393789;32;317399;-86
2023/10/27 01:17:18;;;;;;;10.05;2.95;;;;;;;;;;4402625;32;316806;-88
2023/10/27 01:19:46;;;;;;;7.22;2.70;;;;;;;;;;4399181;32;318205;-86
2023/10/27 01:22:15;;;;;;;7.47;2.28;;;;;;;;;;4398487;32;317277;-88
2023/10/27 01:24:43;;;;;;;5.05;2.53;;;;;;;;;;4404369;32;316475;-86
2023/10/27 01:27:09;;;;;;;6.65;2.95;;;;;;;;;;4393647;32;318285;-85
2023/10/27 01:29:36;;;;;;;7.97;2.42;;;;;;;;;;4403379;32;317520;-86
2023/10/27 01:32:04;;;;;;;7.62;2.78;;;;;;;;;;4379936;32;345111;-93
2023/10/27 01:34:31;;;;;;;6.65;2.97;;;;;;;;;;4387968;32;316903;-87
2023/10/27 01:36:58;;;;;;;23.02;12.52;;;;;;;;;;4389200;32;327249;-88
2023/10/27 01:39:24;;;;;;;21.15;12.15;;;;;;;;;;4404978;32;318416;-86
2023/10/27 01:41:53;;;;;;;17.52;10.52;;;;;;;;;;4384373;32;319748;-89
2023/10/27 01:44:19;;;;;;;22.35;7.07;;;;;;;;;;4404468;32;319892;-90
2023/10/27 01:46:46;;;;;;;12.88;6.35;;;;;;;;;;4396229;32;317844;-86
2023/10/27 01:49:13;;;;;;;8.93;5.80;;;;;;;;;;4407116;32;317753;-93
2023/10/27 01:51:40;;;;;;;11.60;5.07;;;;;;;;;;4407775;32;317375;-89
2023/10/27 01:54:07;;;;;;;14.18;6.62;;;;;;;;;;4390137;32;318274;-84
2023/10/27 01:56:34;;;;;;;8.75;5.05;;;;;;;;;;4395873;32;317518;-93
2023/10/27 01:59:02;;;;;;;8.57;3.87;;;;;;;;;;4381724;32;317475;-87
2023/10/27 02:01:29;;;;;;;9.18;3.75;;;;;;;;;;4392279;32;317410;-85
2023/10/27 02:03:56;;;;;;;7.25;3.60;;;;;;;;;;4361449;32;317656;-85
2023/10/27 02:06:28;;;;;;;5.00;2.30;;;;;;;;;;4391642;32;316887;-85
2023/10/27 02:08:55;;;;;;;13.70;3.33;;;;;;;;;;4380286;32;317130;-84
2023/10/27 02:11:21;;;;;;;5.45;2.67;;;;;;;;;;4392534;32;318222;-86
2023/10/27 02:13:49;;;;;;;5.25;2.15;;;;;;;;;;4380915;32;317191;-92
2023/10/27 02:16:17;;;;;;;7.25;3.12;;;;;;;;;;4391305;32;316656;-86
2023/10/27 02:18:43;;;;;;;8.00;2.78;;;;;;;;;;4392839;32;317170;-86
2023/10/27 02:21:10;;;;;;;31.25;20.55;;;;;;;;;;4380179;32;418492;-89
2023/10/27 02:23:37;;;;;;;12.88;7.07;;;;;;;;;;4397723;32;318276;-87
2023/10/27 02:26:04;;;;;;;12.13;6.12;;;;;;;;;;4383703;32;318125;-92
2023/10/27 02:28:30;;;;;;;18.77;6.00;;;;;;;;;;4411881;32;317200;-89
2023/10/27 02:30:57;;;;;;;12.02;4.43;;;;;;;;;;4400334;32;349661;-88
2023/10/27 02:33:25;;;;;;;9.40;3.95;;;;;;;;;;4414586;32;318007;-87
2023/10/27 02:35:52;;;;;;;5.10;2.30;;;;;;;;;;4395331;32;316919;-89
2023/10/27 02:38:18;;;;;;;9.75;2.80;;;;;;;;;;4414364;32;317327;-92
2023/10/27 02:40:45;;;;;;;7.28;2.37;;;;;;;;;;4415017;32;333506;-86
2023/10/27 02:43:12;;;;;;;7.18;2.55;;;;;;;;;;4404847;32;416122;-86
2023/10/27 02:45:39;;;;;;;9.07;3.05;;;;;;;;;;4414462;32;316541;-86
2023/10/27 02:48:06;;;;;;;8.85;3.03;;;;;;;;;;4392866;32;316955;-86
2023/10/27 02:50:34;;;;;;;8.40;2.90;;;;;;;;;;4410730;32;317036;-86
2023/10/27 02:53:00;;;;;;;8.73;3.78;;;;;;;;;;4400429;32;317045;-86
2023/10/27 02:55:27;;;;;;;10.63;3.75;;;;;;;;;;4419930;32;317156;-86
2023/10/27 02:57:54;;;;;;;10.83;3.77;;;;;;;;;;4407704;32;318198;-84
2023/10/27 03:00:21;;;;;;;6.78;3.40;;;;;;;;;;4424999;32;318086;-87
2023/10/27 03:02:48;;;;;;;5.60;2.87;;;;;;;;;;4413941;32;317061;-88
2023/10/27 03:05:15;;;;;;;9.20;3.03;;;;;;;;;;4422207;32;317228;-85
2023/10/27 03:07:43;;;;;;;12.77;4.47;;;;;;;;;;4421872;32;317048;-85
2023/10/27 03:10:10;;;;;;;11.43;4.07;;;;;;;;;;4406030;32;318355;-86
2023/10/27 03:12:36;;;;;;;11.23;3.80;;;;;;;;;;4421704;32;319034;-84
2023/10/27 03:15:03;;;;;;;14.43;3.90;;;;;;;;;;4380999;32;318319;-90
2023/10/27 03:17:30;;;;;;;9.20;4.50;;;;;;;;;;4390522;32;318321;-84
2023/10/27 03:19:57;;;;;;;9.27;4.82;;;;;;;;;;4374217;32;317217;-86
2023/10/27 03:22:24;;;;;;;11.25;4.85;;;;;;;;;;4392092;32;316936;-85
2023/10/27 03:24:52;;;;;;;17.30;4.78;;;;;;;;;;4381781;32;318310;-84
2023/10/27 03:27:19;;;;;;;10.63;4.50;;;;;;;;;;4391474;32;317548;-92
2023/10/27 03:29:46;;;;;;;18.35;4.03;;;;;;;;;;4382323;32;318726;-86
2023/10/27 03:32:13;;;;;;;12.85;4.93;;;;;;;;;;4384590;32;318289;-85
2023/10/27 03:34:39;;;;;;;10.02;5.22;;;;;;;;;;4390656;32;318659;-86
2023/10/27 03:37:06;;;;;;;5.78;3.65;;;;;;;;;;4391180;32;336962;-85
2023/10/27 03:39:33;;;;;;;9.63;4.30;;;;;;;;;;4408261;32;317206;-88
2023/10/27 03:42:01;;;;;;;13.32;4.97;;;;;;;;;;4389784;32;317217;-87
2023/10/27 03:44:27;;;;;;;14.25;4.70;;;;;;;;;;4406590;32;317755;-87
2023/10/27 03:46:54;;;;;;;13.33;4.00;;;;;;;;;;4396331;32;340773;-85
2023/10/27 03:49:20;;;;;;;8.73;3.95;;;;;;;;;;4407641;32;317900;-88
2023/10/27 03:51:47;;;;;;;13.00;4.82;;;;;;;;;;4396117;32;317658;-94
2023/10/27 03:54:14;;;;;;;10.23;4.62;;;;;;;;;;4403059;32;317950;-87
2023/10/27 03:56:41;;;;;;;10.52;3.72;;;;;;;;;;4386743;32;317732;-87
2023/10/27 03:59:10;;;;;;;8.77;4.25;;;;;;;;;;4398019;32;318011;-86
2023/10/27 04:01:37;;;;;;;6.90;3.78;;;;;;;;;;4407446;32;317304;-88
2023/10/27 04:04:04;;;;;;;8.80;4.72;;;;;;;;;;4393056;32;317105;-91
2023/10/27 04:06:31;;;;;;;17.33;9.23;;;;;;;;;;4407442;32;317746;-86
2023/10/27 04:08:58;;;;;;;19.65;11.55;;;;;;;;;;4396313;32;318367;-91
2023/10/27 04:11:25;;;;;;;22.25;11.90;;;;;;;;;;4407874;32;319254;-88
2023/10/27 04:13:51;;;;;;;22.62;11.35;;;;;;;;;;4390501;32;319937;-85
2023/10/27 04:16:19;;;;;;;23.00;10.60;;;;;;;;;;4405285;32;319216;-87
2023/10/27 04:18:46;;;;;;;15.07;9.43;;;;;;;;;;4392389;32;349013;-86
2023/10/27 04:21:13;;;;;;;17.08;8.73;;;;;;;;;;4407150;32;317851;-92
2023/10/27 04:23:40;;;;;;;16.50;8.02;;;;;;;;;;4409138;32;318375;-91
2023/10/27 04:26:07;;;;;;;16.52;6.43;;;;;;;;;;4391114;32;318175;-90
2023/10/27 04:28:34;;;;;;;10.73;5.37;;;;;;;;;;4414556;32;317590;-91
2023/10/27 04:31:00;;;;;;;17.48;6.60;;;;;;;;;;4400397;32;318470;-93
2023/10/27 04:33:29;;;;;;;13.07;5.43;;;;;;;;;;4405755;32;318481;-91
2023/10/27 04:35:56;;;;;;;11.77;5.85;;;;;;;;;;4376216;32;318854;-86
2023/10/27 04:38:23;;;;;;;13.65;5.47;;;;;;;;;;4402511;32;318677;-88
2023/10/27 04:40:51;;;;;;;17.23;6.60;;;;;;;;;;4395071;32;318615;-87
2023/10/27 04:43:21;;;;;;;10.55;5.05;;;;;;;;;;4405346;32;318203;-89
2023/10/27 04:45:48;;;;;;;10.48;4.70;;;;;;;;;;4390528;32;348974;-91
2023/10/27 04:48:15;;;;;;;20.95;5.62;;;;;;;;;;4400299;32;346074;-93
2023/10/27 04:50:43;;;;;;;10.65;5.07;;;;;;;;;;4404465;32;318555;-93
2023/10/27 04:53:10;;;;;;;13.05;5.65;;;;;;;;;;4394101;32;318189;-93
2023/10/27 04:55:36;;;;;;;21.25;8.88;;;;;;;;;;4410455;32;317852;-93
2023/10/27 04:58:03;;;;;;;24.35;14.40;;;;;;;;;;4388724;32;317715;-89
2023/10/27 05:00:32;;;;;;;26.60;12.77;;;;;;;;;;4406360;32;319022;-93
2023/10/27 05:02:59;;;;;;;24.87;10.98;;;;;;;;;;4401134;32;319484;-86
2023/10/27 05:05:26;;;;;;;23.05;10.07;;;;;;;;;;4410445;32;318452;-90
2023/10/27 05:07:55;;;;;;;12.55;5.28;;;;;;;;;;4387620;32;319293;-93
2023/10/27 05:10:22;;;;;;;18.08;5.05;;;;;;;;;;4403654;32;326396;-90
2023/10/27 05:12:49;;;;;;;20.50;5.75;;;;;;;;;;4394833;32;318311;-88
2023/10/27 05:15:16;;;;;;;15.02;5.85;;;;;;;;;;4404330;32;334073;-91
2023/10/27 05:17:43;;;;;;;17.45;5.85;;;;;;;;;;4404704;32;318249;-92
2023/10/27 05:20:10;;;;;;;14.30;5.47;;;;;;;;;;4386203;32;318585;-93
2023/10/27 05:22:37;;;;;;;13.40;5.30;;;;;;;;;;4404488;32;318795;-92
2023/10/27 05:25:06;;;;;;;15.70;8.05;;;;;;;;;;4397465;32;317805;-88
2023/10/27 05:27:33;;;;;;;17.52;7.75;;;;;;;;;;4405670;32;318352;-91
2023/10/27 05:30:00;;;;;;;28.75;7.07;;;;;;;;;;4389364;32;318425;-93
2023/10/27 05:32:27;;;;;;;17.58;8.55;;;;;;;;;;4405817;32;318953;-88
2023/10/27 05:34:54;;;;;;;15.55;6.53;;;;;;;;;;4397217;32;317946;-91
2023/10/27 05:37:21;;;;;;;16.05;7.32;;;;;;;;;;4404127;32;318487;-92
2023/10/27 05:39:48;;;;;;;28.58;7.57;;;;;;;;;;4396162;32;317664;-94
2023/10/27 05:42:16;;;;;;;14.20;6.57;;;;;;;;;;4404633;32;318356;-88
2023/10/27 05:44:43;;;;;;;22.60;7.85;;;;;;;;;;4406183;32;318457;-93
2023/10/27 05:47:10;;;;;;;16.27;7.53;;;;;;;;;;4394651;32;318305;-96
2023/10/27 05:49:37;;;;;;;16.12;7.35;;;;;;;;;;4405435;32;318498;-92
2023/10/27 05:52:04;;;;;;;24.10;8.48;;;;;;;;;;4389064;32;318742;-92
2023/10/27 05:54:31;;;;;;;36.25;8.77;;;;;;;;;;4405655;32;318056;-90
2023/10/27 05:56:57;;;;;;;23.25;8.38;;;;;;;;;;4389729;32;318900;-94
2023/10/27 05:59:25;;;;;;;18.60;8.88;;;;;;;;;;4399046;32;351762;-95
2023/10/27 06:01:54;;;;;;;24.75;8.05;;;;;;;;;;4385874;32;334702;-87
2023/10/27 06:04:21;;;;;;;19.58;8.65;;;;;;;;;;4404159;32;317934;-89
2023/10/27 06:06:48;;;;;;;40.80;11.23;;;;;;;;;;4395290;32;318728;-89
2023/10/27 06:09:14;;;;;;;26.23;9.82;;;;;;;;;;4404279;32;319537;-86
2023/10/27 06:11:41;;;;;;;29.15;9.07;;;;;;;;;;4403608;32;318211;-86
2023/10/27 06:14:08;;;;;;;25.12;8.75;;;;;;;;;;4386974;32;318617;-89
2023/10/27 06:16:37;;;;;;;16.87;9.38;;;;;;;;;;4402588;32;318178;-89
2023/10/27 06:19:04;;;;;;;27.35;10.00;;;;;;;;;;4393933;32;319001;-88
2023/10/27 06:21:31;;;;;;;30.35;10.32;;;;;;;;;;4404186;32;318798;-88
2023/10/27 06:23:58;;;;;;;22.05;8.73;;;;;;;;;;4392449;32;318890;-89
2023/10/27 06:26:25;;;;;;;22.33;9.35;;;;;;;;;;4405145;32;318610;-88
2023/10/27 06:28:52;;;;;;;16.17;8.68;;;;;;;;;;4380621;32;317630;-89
2023/10/27 06:31:19;;;;;;;19.23;8.77;;;;;;;;;;4405450;32;318145;-88
2023/10/27 06:33:47;;;;;;;17.10;8.30;;;;;;;;;;4397094;32;318879;-89
2023/10/27 06:36:14;;;;;;;19.62;8.85;;;;;;;;;;4404204;32;318495;-89
2023/10/27 06:38:41;;;;;;;24.48;8.40;;;;;;;;;;4407243;32;317557;-90
2023/10/27 06:41:08;;;;;;;27.15;13.20;;;;;;;;;;4384899;32;318204;-90
2023/10/27 06:43:34;;;;;;;24.70;12.00;;;;;;;;;;4409731;32;319510;-89
2023/10/27 06:46:01;;;;;;;69.70;38.23;;;;;;;;;;4391485;32;323068;-88
2023/10/27 06:48:28;;;;;;;39.45;17.23;;;;;;;;;;4408684;32;319308;-89
2023/10/27 06:50:56;;;;;;;29.33;13.05;;;;;;;;;;4398184;32;319260;-89
2023/10/27 06:53:22;;;;;;;28.67;11.27;;;;;;;;;;4408256;32;319566;-89
2023/10/27 06:55:49;;;;;;;31.37;13.55;;;;;;;;;;4390930;32;359364;-95
2023/10/27 06:58:16;;;;;;;22.50;11.73;;;;;;;;;;4403250;32;319586;-88
2023/10/27 07:00:43;;;;;;;22.58;10.07;;;;;;;;;;4389943;32;318762;-89
2023/10/27 07:03:09;;;;;;;17.33;10.82;;;;;;;;;;4382195;32;319260;-87
2023/10/27 07:05:36;;;;;;;19.23;9.60;;;;;;;;;;4390341;32;342844;-89
2023/10/27 07:08:06;;;;;;;19.42;8.30;;;;;;;;;;4375892;32;318684;-86
2023/10/27 07:10:33;;;;;;;24.12;8.43;;;;;;;;;;4393222;32;319093;-89
2023/10/27 07:12:59;;;;;;;20.40;7.82;;;;;;;;;;4382057;32;318221;-87
2023/10/27 07:15:26;;;;;;;13.27;8.00;;;;;;;;;;4392520;32;325681;-88
2023/10/27 07:17:53;;;;;;;15.75;7.32;;;;;;;;;;4378016;32;318218;-89
2023/10/27 07:20:19;;;;;;;23.92;8.00;;;;;;;;;;4389390;32;318666;-90
2023/10/27 07:22:46;;;;;;;13.10;6.95;;;;;;;;;;4377455;32;317823;-88
2023/10/27 07:25:14;;;;;;;20.23;5.28;;;;;;;;;;4389924;32;318731;-92
2023/10/27 07:30:30;;;;;;;11.27;5.10;;;;;;;;;;4378518;32;389687;-93
2023/10/27 07:32:57;;;;;;;16.02;7.43;;;;;;;;;;4387276;32;318445;-88
2023/10/27 07:35:24;;;;;;;19.58;7.18;;;;;;;;;;4389948;32;318082;-89
2023/10/27 07:37:52;;;;;;;17.60;5.97;;;;;;;;;;4369126;32;318586;-89
2023/10/27 07:40:21;;;;;;;11.43;5.35;;;;;;;;;;4404476;32;322044;-83
2023/10/27 07:42:47;;;;;;;15.35;6.25;;;;;;;;;;4399015;32;318289;-90
2023/10/27 07:45:14;;;;;;;17.10;6.55;;;;;;;;;;4410647;32;318867;-90
2023/10/27 07:47:41;;;;;;;15.32;5.72;;;;;;;;;;4411969;32;318282;-89
2023/10/27 07:50:08;;;;;;;19.27;5.25;;;;;;;;;;4399208;32;317974;-91
2023/10/27 07:52:35;;;;;;;7.57;4.37;;;;;;;;;;4410519;32;318624;-90
2023/10/27 07:55:02;;;;;;;13.18;6.45;;;;;;;;;;4392362;32;331306;-90
2023/10/27 07:57:32;;;;;;;15.88;4.87;;;;;;;;;;4411599;32;317619;-86
2023/10/27 07:59:59;;;;;;;22.52;6.30;;;;;;;;;;4395732;32;318436;-90
2023/10/27 08:02:26;;;;;;;11.02;5.28;;;;;;;;;;4412054;32;317637;-91
2023/10/27 08:04:52;;;;;;;10.15;4.57;;;;;;;;;;4400054;32;317936;-87
2023/10/27 08:07:19;;;;;;;14.60;5.05;;;;;;;;;;4408323;32;318415;-87
2023/10/27 08:09:46;;;;;;;21.67;6.03;;;;;;;;;;4401576;32;318310;-89
2023/10/27 08:12:13;;;;;;;13.48;5.25;;;;;;;;;;4405413;32;318357;-90
2023/10/27 08:14:41;;;;;;;7.97;4.60;;;;;;;;;;4407839;32;318655;-90
2023/10/27 08:17:09;;;;;;;15.70;5.22;;;;;;;;;;4399811;32;317315;-89
2023/10/27 08:19:39;;;;;;;13.98;5.15;;;;;;;;;;4409059;32;318235;-91
2023/10/27 08:22:06;;;;;;;12.98;5.72;;;;;;;;;;4379215;32;318603;-86
2023/10/27 08:24:33;;;;;;;10.32;5.15;;;;;;;;;;4411644;32;318657;-87
2023/10/27 08:27:00;;;;;;;16.00;6.00;;;;;;;;;;4403052;32;317536;-90
2023/10/27 08:29:26;;;;;;;13.52;4.87;;;;;;;;;;4403902;32;318371;-91
2023/10/27 08:31:55;;;;;;;7.20;4.70;;;;;;;;;;4401343;32;318034;-91
2023/10/27 08:34:22;;;;;;;16.17;5.22;;;;;;;;;;4411837;32;317131;-89
2023/10/27 08:36:49;;;;;;;12.88;4.95;;;;;;;;;;4380498;32;318403;-90
2023/10/27 08:39:16;;;;;;;9.90;4.82;;;;;;;;;;4396504;32;317571;-90
2023/10/27 08:41:43;;;;;;;15.82;5.82;;;;;;;;;;4398724;32;316536;-88
2023/10/27 08:44:10;;;;;;;16.23;5.30;;;;;;;;;;4386375;32;318407;-88
2023/10/27 08:46:37;;;;;;;19.55;5.35;;;;;;;;;;4398122;32;317536;-88
2023/10/27 08:49:05;;;;;;;11.20;5.67;;;;;;;;;;4397911;32;329670;-94
2023/10/27 08:51:33;;;;;;;10.75;4.87;;;;;;;;;;4407352;32;317159;-93
2023/10/27 08:54:00;;;;;;;15.80;5.57;;;;;;;;;;4383575;32;358029;-91
2023/10/27 08:56:26;;;;;;;11.73;4.45;;;;;;;;;;4412882;32;317179;-89
2023/10/27 08:58:53;;;;;;;14.02;5.37;;;;;;;;;;4399382;32;318283;-90
2023/10/27 09:01:20;;;;;;;16.65;5.18;;;;;;;;;;4407082;32;317369;-89
2023/10/27 09:04:10;;;;;;;17.23;5.47;;;;;;;;;;4397224;32;399058;-90
2023/10/27 09:06:37;;;;;;;14.57;5.45;;;;;;;;;;4403316;32;317587;-91
2023/10/27 09:09:06;;;;;;;14.45;5.75;;;;;;;;;;4392954;32;318277;-89
2023/10/27 09:11:39;;;;;;;9.30;4.82;;;;;;;;;;4405557;32;317667;-91
2023/10/27 09:14:17;;;;;;;16.80;4.37;;;;;;;;;;4387961;32;317082;-94
2023/10/27 09:16:44;;;;;;;11.02;4.25;;;;;;;;;;4397739;32;318327;-83
2023/10/27 09:19:20;;;;;;;17.23;3.92;;;;;;;;;;4397470;32;418927;-89
2023/10/27 09:24:25;;;;;;;16.65;5.53;;;;;;;;;;4370413;27;358695;-88
2023/10/27 09:26:53;;;;;;;16.58;3.92;;;;;;;;;;4377109;27;318735;-89
2023/10/27 09:29:23;;;;;;;15.68;4.97;;;;;;;;;;4396615;27;316290;-87
2023/10/27 09:31:51;;;;;;;12.75;4.82;;;;;;;;;;4369710;27;385653;-87
2023/10/27 09:34:24;;;;;;;11.00;3.70;;;;;;;;;;4373059;32;332725;-88
2023/10/27 09:36:51;;;;;;;17.37;4.35;;;;;;;;;;4383874;27;316276;-87
2023/10/27 09:39:20;;;;;;;11.68;3.45;;;;;;;;;;4360002;32;414185;-87
2023/10/27 09:41:48;;;;;;;13.95;5.18;;;;;;;;;;4363239;32;318670;-90
2023/10/27 09:44:16;;;;;;;11.48;3.72;;;;;;;;;;4370245;32;317614;-90
2023/10/27 09:46:52;;;;;;;9.70;3.70;;;;;;;;;;4374543;27;318959;-88
2023/10/27 09:49:32;;;;;;;10.85;4.25;;;;;;;;;;4384142;27;417322;-86
2023/10/27 09:52:04;;;;;;;12.85;6.12;;;;;;;;;;4356031;32;318095;-91
2023/10/27 09:54:32;;;;;;;16.30;5.12;;;;;;;;;;4375406;32;317357;-90
2023/10/27 09:57:00;;;;;;;14.02;4.50;;;;;;;;;;4366265;32;317424;-89
2023/10/27 09:59:30;;;;;;;11.65;4.50;;;;;;;;;;4375897;32;317242;-89
2023/10/27 10:01:57;;;;;;;14.60;4.55;;;;;;;;;;4362011;32;317348;-87
2023/10/27 10:05:03;;;;;;;15.32;4.35;;;;;;;;;;4556250;27;318872;-87
2023/10/27 10:07:33;;;;;;;13.75;4.28;;;;;;;;;;4375483;27;317044;-88
2023/10/27 10:10:21;;;;;;;13.77;4.43;;;;;;;;;;4411404;27;319147;-88
2023/10/27 10:15:24;;;;;;;9.15;3.90;;;;;;;;;;4344300;32;317130;-87
2023/10/27 10:17:51;;;;;;;13.52;3.97;;;;;;;;;;4344930;32;316786;-87
2023/10/27 10:20:59;;;;;;;9.93;3.62;;;;;;;;;;4360614;27;317435;-87
2023/10/27 10:24:00;;;;;;;17.60;4.95;;;;;;;;;;4313662;27;417536;-89
2023/10/27 10:27:00;;;;;;;10.13;3.25;;;;;;;;;;4400732;27;390923;-90
2023/10/27 10:29:32;;;;;;;10.43;3.92;;;;;;;;;;4396909;27;419866;-88
2023/10/27 10:32:32;;;;;;;15.90;4.32;;;;;;;;;;4384815;32;318374;-89
2023/10/27 10:35:26;;;;;;;17.25;4.35;;;;;;;;;;4410372;27;318140;-88
2023/10/27 10:40:27;;;;;;;10.27;3.40;;;;;;;;;;4351599;32;323825;-89
2023/10/27 10:43:32;;;;;;;11.02;3.22;;;;;;;;;;4356582;32;318055;-89
2023/10/27 10:46:00;;;;;;;7.95;3.20;;;;;;;;;;4355843;32;317700;-88
2023/10/27 10:48:28;;;;;;;14.65;3.30;;;;;;;;;;4368696;32;316753;-84
2023/10/27 10:51:03;;;;;;;8.90;2.83;;;;;;;;;;4355441;32;317740;-84
2023/10/27 10:53:30;;;;;;;15.88;3.53;;;;;;;;;;4373890;32;317027;-84
2023/10/27 10:55:59;;;;;;;9.43;2.62;;;;;;;;;;4351322;32;317686;-83
2023/10/27 10:58:27;;;;;;;6.78;3.15;;;;;;;;;;4373313;32;316339;-84
2023/10/27 11:00:56;;;;;;;10.93;4.37;;;;;;;;;;4365184;32;317120;-84
2023/10/27 11:03:25;;;;;;;17.50;4.40;;;;;;;;;;4377824;32;318279;-83
2023/10/27 11:05:54;;;;;;;12.80;4.10;;;;;;;;;;4365179;32;317236;-83
2023/10/27 11:08:27;;;;;;;10.98;5.03;;;;;;;;;;4372480;32;317514;-85
2023/10/27 11:11:00;;;;;;;8.95;3.60;;;;;;;;;;4362496;32;317642;-84
2023/10/27 11:13:28;;;;;;;7.55;3.17;;;;;;;;;;4370370;32;317130;-86
2023/10/27 11:15:54;;;;;;;11.98;3.78;;;;;;;;;;4358893;32;316985;-87
2023/10/27 11:18:21;;;;;;;12.37;3.92;;;;;;;;;;4372123;32;318241;-85
2023/10/27 11:20:49;;;;;;;8.85;3.65;;;;;;;;;;4360376;32;317900;-86
2023/10/27 11:23:17;;;;;;;14.13;3.97;;;;;;;;;;4370862;32;317092;-88
2023/10/27 11:25:45;;;;;;;6.47;3.00;;;;;;;;;;4367127;32;318243;-89
2023/10/27 11:28:23;;;;;;;8.68;3.53;;;;;;;;;;4350324;32;417199;-84
2023/10/27 11:31:00;;;;;;;11.65;3.45;;;;;;;;;;4364531;32;317371;-84
2023/10/27 11:33:27;;;;;;;15.32;4.90;;;;;;;;;;4372799;32;317708;-90
2023/10/27 11:35:55;;;;;;;10.48;3.10;;;;;;;;;;4352471;32;348628;-89
2023/10/27 11:38:22;;;;;;;16.85;3.97;;;;;;;;;;4382090;32;318001;-92
2023/10/27 11:40:51;;;;;;;10.02;3.92;;;;;;;;;;4367537;32;317192;-88
2023/10/27 11:43:18;;;;;;;8.30;3.78;;;;;;;;;;4378660;32;317548;-84
2023/10/27 11:45:46;;;;;;;9.70;2.37;;;;;;;;;;4364145;32;316444;-88
2023/10/27 11:48:13;;;;;;;10.05;1.40;;;;;;;;;;4361093;32;316853;-85
2023/10/27 11:50:40;;;;;;;6.47;1.77;;;;;;;;;;4372429;32;318506;-89
2023/10/27 11:53:07;;;;;;;3.75;1.70;;;;;;;;;;4361370;32;317273;-89
2023/10/27 11:55:34;;;;;;;6.35;1.42;;;;;;;;;;4372878;32;316476;-85
2023/10/27 11:58:02;;;;;;;7.68;1.92;;;;;;;;;;4355172;32;317296;-84
2023/10/27 12:00:28;;;;;;;5.22;1.25;;;;;;;;;;4362975;32;316593;-83
2023/10/27 12:02:56;;;;;;;4.43;1.48;;;;;;;;;;4354429;32;317601;-88
2023/10/27 12:05:23;;;;;;;7.55;1.75;;;;;;;;;;4363826;32;317373;-85
2023/10/27 12:07:51;;;;;;;5.28;2.00;;;;;;;;;;4353427;32;317323;-82
2023/10/27 12:10:17;;;;;;;18.98;2.50;;;;;;;;;;4363090;32;316764;-84
2023/10/27 12:12:44;;;;;;;7.28;1.48;;;;;;;;;;4362751;32;318521;-85
2023/10/27 12:15:14;;;;;;;3.70;1.35;;;;;;;;;;4352010;32;417909;-96
2023/10/27 12:17:41;;;;;;;5.95;1.30;;;;;;;;;;4368742;32;317000;-88
2023/10/27 12:20:10;;;;;;;12.95;1.60;;;;;;;;;;4343796;32;317551;-86
2023/10/27 12:22:36;;;;;;;9.20;1.83;;;;;;;;;;4375920;32;317432;-83
2023/10/27 12:25:05;;;;;;;6.93;1.45;;;;;;;;;;4362716;32;317479;-86
2023/10/27 12:27:32;;;;;;;2.75;1.30;;;;;;;;;;4370357;32;316738;-87
2023/10/27 12:29:59;;;;;;;4.90;1.27;;;;;;;;;;4354858;32;316980;-85
2023/10/27 12:32:32;;;;;;;2.78;1.58;;;;;;;;;;4370660;32;316848;-86
2023/10/27 12:34:59;;;;;;;7.50;1.92;;;;;;;;;;4355483;32;317153;-86
2023/10/27 12:37:26;;;;;;;4.50;1.35;;;;;;;;;;4370255;32;316623;-85
2023/10/27 12:39:53;;;;;;;6.13;1.30;;;;;;;;;;4357169;32;317202;-88
2023/10/27 12:42:20;;;;;;;6.32;1.70;;;;;;;;;;4374672;32;317252;-85
2023/10/27 12:44:47;;;;;;;6.30;1.58;;;;;;;;;;4358222;32;386123;-83
2023/10/27 12:47:13;;;;;;;3.05;1.42;;;;;;;;;;4371276;32;317330;-83
2023/10/27 12:49:43;;;;;;;6.43;1.42;;;;;;;;;;4369356;32;317176;-88
2023/10/27 12:52:09;;;;;;;7.57;1.10;;;;;;;;;;4347851;32;317157;-90
2023/10/27 12:54:36;;;;;;;8.82;2.30;;;;;;;;;;4355339;32;317525;-90
2023/10/27 12:57:03;;;;;;;7.47;1.58;;;;;;;;;;4336464;32;328871;-89
2023/10/27 12:59:30;;;;;;;7.40;1.70;;;;;;;;;;4345977;32;317723;-91
2023/10/27 13:01:57;;;;;;;11.27;1.65;;;;;;;;;;4328463;32;317733;-88
2023/10/27 13:04:24;;;;;;;2.40;1.25;;;;;;;;;;4344414;32;318467;-84
2023/10/27 13:06:53;;;;;;;3.62;1.73;;;;;;;;;;4334039;32;317957;-85
2023/10/27 13:09:20;;;;;;;4.80;1.48;;;;;;;;;;4343861;32;316570;-93
2023/10/27 13:11:47;;;;;;;7.20;1.50;;;;;;;;;;4336010;32;317558;-89
2023/10/27 13:14:14;;;;;;;3.22;1.17;;;;;;;;;;4338206;32;317434;-89
2023/10/27 13:16:41;;;;;;;3.95;1.30;;;;;;;;;;4344854;32;336404;-84
2023/10/27 13:19:08;;;;;;;5.78;1.58;;;;;;;;;;4335519;32;317508;-87
2023/10/27 13:21:36;;;;;;;12.43;1.55;;;;;;;;;;4337697;32;316798;-84
2023/10/27 13:24:05;;;;;;;4.03;2.15;;;;;;;;;;4328031;32;318409;-84
2023/10/27 13:26:31;;;;;;;5.95;1.50;;;;;;;;;;4346378;32;317121;-89
2023/10/27 13:28:59;;;;;;;3.40;1.75;;;;;;;;;;4345229;32;317305;-87
2023/10/27 13:31:26;;;;;;;2.67;1.27;;;;;;;;;;4362716;32;316262;-84
2023/10/27 13:33:53;;;;;;;4.15;1.58;;;;;;;;;;4361298;32;317304;-86
2023/10/27 13:36:21;;;;;;;5.00;1.60;;;;;;;;;;4377495;32;316924;-93
2023/10/27 13:38:49;;;;;;;4.28;1.23;;;;;;;;;;4381877;32;317332;-91
2023/10/27 13:41:18;;;;;;;4.70;1.77;;;;;;;;;;4374068;32;316302;-88
2023/10/27 13:43:46;;;;;;;6.05;1.30;;;;;;;;;;4360650;32;317237;-88
2023/10/27 13:46:14;;;;;;;4.10;1.60;;;;;;;;;;4361023;32;317238;-89
2023/10/27 13:48:41;;;;;;;6.47;1.35;;;;;;;;;;4365774;32;317292;-86
2023/10/27 13:51:09;;;;;;;5.07;1.40;;;;;;;;;;4361892;32;317160;-90
2023/10/27 13:53:36;;;;;;;9.80;1.52;;;;;;;;;;4381189;32;317327;-93
2023/10/27 13:56:03;;;;;;;8.38;1.50;;;;;;;;;;4368392;32;317034;-95
2023/10/27 13:58:32;;;;;;;3.42;1.58;;;;;;;;;;4359329;32;418568;-94
2023/10/27 14:01:01;;;;;;;6.53;2.12;;;;;;;;;;4377664;32;317276;-85
2023/10/27 14:03:28;;;;;;;5.97;1.60;;;;;;;;;;4350841;32;317241;-86
2023/10/27 14:05:55;;;;;;;5.50;1.10;;;;;;;;;;4362861;32;316667;-87
2023/10/27 14:08:23;;;;;;;2.70;1.30;;;;;;;;;;4362399;32;317551;-89
2023/10/27 14:10:50;;;;;;;6.95;1.85;;;;;;;;;;4370053;32;317111;-92
2023/10/27 14:13:17;;;;;;;8.93;2.20;;;;;;;;;;4324853;32;317764;-91
2023/10/27 14:15:45;;;;;;;4.62;1.55;;;;;;;;;;4345970;32;316976;-91
2023/10/27 14:18:12;;;;;;;9.38;1.70;;;;;;;;;;4337154;32;317206;-89
2023/10/27 14:20:38;;;;;;;7.10;2.22;;;;;;;;;;4346571;32;317796;-89
2023/10/27 14:23:05;;;;;;;5.60;1.77;;;;;;;;;;4338497;32;317247;-89
2023/10/27 14:25:36;;;;;;;3.33;1.40;;;;;;;;;;4339890;32;317788;-87
2023/10/27 14:28:03;;;;;;;2.78;2.12;;;;;;;;;;4345645;32;318034;-93
2023/10/27 14:30:29;;;;;;;6.70;2.42;;;;;;;;;;4334707;32;417869;-91
2023/10/27 14:32:58;;;;;;;5.12;1.95;;;;;;;;;;4353233;32;353665;-91
2023/10/27 14:35:25;;;;;;;4.32;1.58;;;;;;;;;;4345469;32;317383;-90
2023/10/27 14:37:52;;;;;;;8.13;2.22;;;;;;;;;;4362563;32;316747;-91